This is the latest recevied weather packets stored in our database for station/object SQ7FJB-2. If no packets are shown the sender has not sent any weather packets the latest 10 day(s).
| Time | Temp. | Humidity | Pressure | Rain* | Wind** | Luminosity | Snow |
|---|---|---|---|---|---|---|---|
| 1777699561 | 11.67° C | 58% | 1024.1 hPa | 0 mm | - | - | - |
| 1777698948 | 11.67° C | 59% | 1024.1 hPa | 0 mm | - | - | - |
| 1777698348 | 11.11° C | 60% | 1024.1 hPa | 0 mm | - | - | - |
| 1777697736 | 9.44° C | 73% | 1024.1 hPa | 0 mm | - | - | - |
| 1777697124 | 7.22° C | 78% | 1024.1 hPa | 0 mm | - | - | - |
| 1777696523 | 4.44° C | 94% | 1024.1 hPa | 0 mm | - | - | - |
| 1777695923 | 3.33° C | 94% | 1024 hPa | 0 mm | - | - | - |
| 1777695323 | 2.78° C | 93% | 1023.9 hPa | 0 mm | - | - | - |
| 1777694711 | 2.78° C | 93% | 1023.9 hPa | 0 mm | - | - | - |
| 1777694110 | 2.22° C | 93% | 1023.8 hPa | 0 mm | - | - | - |
| 1777693511 | 1.67° C | 94% | 1023.8 hPa | 0 mm | - | - | - |
| 1777692898 | 1.67° C | 94% | 1023.9 hPa | 0 mm | - | - | - |
| 1777692298 | 1.67° C | 94% | 1023.8 hPa | 0 mm | - | - | - |
| 1777691698 | 1.11° C | 94% | 1023.9 hPa | 0 mm | - | - | - |
| 1777691086 | 1.67° C | 94% | 1023.9 hPa | 0 mm | - | - | - |
| 1777690473 | 1.67° C | 93% | 1023.8 hPa | 0 mm | - | - | - |
| 1777689873 | 1.67° C | 93% | 1023.8 hPa | 0 mm | - | - | - |
| 1777689273 | 1.67° C | 93% | 1023.8 hPa | 0 mm | - | - | - |
| 1777688673 | 1.67° C | 93% | 1023.8 hPa | 0 mm | - | - | - |
| 1777688073 | 1.67° C | 93% | 1023.8 hPa | 0 mm | - | - | - |
| 1777687461 | 1.67° C | 92% | 1023.8 hPa | 0 mm | - | - | - |
| 1777686848 | 2.22° C | 92% | 1023.8 hPa | 0 mm | - | - | - |
| 1777686248 | 2.22° C | 92% | 1023.8 hPa | 0 mm | - | - | - |
| 1777685648 | 2.22° C | 92% | 1023.8 hPa | 0 mm | - | - | - |
| 1777685035 | 2.22° C | 92% | 1023.8 hPa | 0 mm | - | - | - |
* Rain latest hour (hover to see other rain measurements)
** Current wind speed in m/s (hover to see current wind gust speed)